Mammoth Lakes, California
Current Conditions -  °F | °C
As of 12:15 AM on Tuesday 21 Oct 2014 (Local Time) from KMMH Reporting Station
Clear Clear  
Wind Chill: 52°   Ceiling: Unl
Heat Index: 52°   Visibility: 10mi
Dew Point: 12°   Wind: 25mph
Humidity: 21%   Direction: 220°SW
Pressure: 30.04"   Gusts: 39mph
Location:  37.65°N, 118.97°W
Report Text: KMMH 210715Z AUTO 22022G34KT 10SM CLR 11/M11 A3004 RMK AO1
Loading
Personal Weather Stations






























Interactive Weather Map New forecast layout! Learn more

10-Day Weather Forecast

Advertisements
Track Severe Weather on mobile